sensor_id;sensor_type;location;lat;lon;timestamp;P1;durP1;ratioP1;P2;durP2;ratioP2
30000;SDS011;16845;48.670;9.000;2023-07-29T00:02:26;2.85;;;1.60;;
30000;SDS011;16845;48.670;9.000;2023-07-29T00:04:52;2.60;;;2.10;;
30000;SDS011;16845;48.670;9.000;2023-07-29T00:07:19;4.63;;;1.80;;
30000;SDS011;16845;48.670;9.000;2023-07-29T00:09:47;5.60;;;2.03;;
30000;SDS011;16845;48.670;9.000;2023-07-29T00:12:13;3.58;;;1.95;;
30000;SDS011;16845;48.670;9.000;2023-07-29T00:14:40;2.38;;;1.80;;
30000;SDS011;16845;48.670;9.000;2023-07-29T00:17:06;8.30;;;1.98;;
30000;SDS011;16845;48.670;9.000;2023-07-29T00:19:33;5.63;;;2.22;;
30000;SDS011;16845;48.670;9.000;2023-07-29T00:21:59;2.63;;;1.95;;
30000;SDS011;16845;48.670;9.000;2023-07-29T00:24:25;5.82;;;2.25;;
30000;SDS011;16845;48.670;9.000;2023-07-29T00:26:53;8.55;;;1.90;;
30000;SDS011;16845;48.670;9.000;2023-07-29T00:29:20;5.07;;;2.25;;
30000;SDS011;16845;48.670;9.000;2023-07-29T00:31:46;3.22;;;2.30;;
30000;SDS011;16845;48.670;9.000;2023-07-29T00:34:13;2.97;;;2.05;;
30000;SDS011;16845;48.670;9.000;2023-07-29T00:36:39;6.60;;;2.72;;
30000;SDS011;16845;48.670;9.000;2023-07-29T00:39:06;5.22;;;1.80;;
30000;SDS011;16845;48.670;9.000;2023-07-29T00:41:32;4.03;;;2.20;;
30000;SDS011;16845;48.670;9.000;2023-07-29T00:44:00;3.20;;;1.92;;
30000;SDS011;16845;48.670;9.000;2023-07-29T00:46:27;4.50;;;1.95;;
30000;SDS011;16845;48.670;9.000;2023-07-29T00:48:54;3.75;;;1.98;;
30000;SDS011;16845;48.670;9.000;2023-07-29T00:51:21;2.75;;;2.00;;
30000;SDS011;16845;48.670;9.000;2023-07-29T00:53:47;2.33;;;1.75;;
30000;SDS011;16845;48.670;9.000;2023-07-29T00:56:14;2.45;;;1.60;;
30000;SDS011;16845;48.670;9.000;2023-07-29T00:58:40;3.30;;;1.88;;
30000;SDS011;16845;48.670;9.000;2023-07-29T01:01:09;4.78;;;2.15;;
30000;SDS011;16845;48.670;9.000;2023-07-29T01:03:35;6.25;;;3.40;;
30000;SDS011;16845;48.670;9.000;2023-07-29T01:06:07;8.02;;;2.10;;
30000;SDS011;16845;48.670;9.000;2023-07-29T01:08:38;3.95;;;1.95;;
30000;SDS011;16845;48.670;9.000;2023-07-29T01:11:16;3.60;;;1.95;;
30000;SDS011;16845;48.670;9.000;2023-07-29T01:13:53;4.43;;;1.98;;
30000;SDS011;16845;48.670;9.000;2023-07-29T01:16:30;6.78;;;2.65;;
30000;SDS011;16845;48.670;9.000;2023-07-29T01:19:05;5.32;;;1.85;;
30000;SDS011;16845;48.670;9.000;2023-07-29T01:21:32;4.15;;;2.00;;
30000;SDS011;16845;48.670;9.000;2023-07-29T01:24:02;2.92;;;1.80;;
30000;SDS011;16845;48.670;9.000;2023-07-29T01:26:29;4.57;;;2.20;;
30000;SDS011;16845;48.670;9.000;2023-07-29T01:28:56;3.08;;;2.22;;
30000;SDS011;16845;48.670;9.000;2023-07-29T01:31:23;5.55;;;1.90;;
30000;SDS011;16845;48.670;9.000;2023-07-29T01:33:57;4.60;;;2.08;;
30000;SDS011;16845;48.670;9.000;2023-07-29T01:36:28;5.72;;;1.98;;
30000;SDS011;16845;48.670;9.000;2023-07-29T01:38:57;3.45;;;2.28;;
30000;SDS011;16845;48.670;9.000;2023-07-29T01:41:26;3.65;;;1.98;;
30000;SDS011;16845;48.670;9.000;2023-07-29T01:43:53;6.35;;;2.25;;
30000;SDS011;16845;48.670;9.000;2023-07-29T01:46:21;3.58;;;1.95;;
30000;SDS011;16845;48.670;9.000;2023-07-29T01:48:48;3.45;;;2.50;;
30000;SDS011;16845;48.670;9.000;2023-07-29T01:51:14;4.57;;;2.70;;
30000;SDS011;16845;48.670;9.000;2023-07-29T01:53:41;6.55;;;2.63;;
30000;SDS011;16845;48.670;9.000;2023-07-29T01:56:07;2.63;;;2.08;;
30000;SDS011;16845;48.670;9.000;2023-07-29T01:58:35;8.80;;;3.07;;
30000;SDS011;16845;48.670;9.000;2023-07-29T02:01:02;4.63;;;2.67;;
30000;SDS011;16845;48.670;9.000;2023-07-29T02:03:28;2.80;;;2.13;;
30000;SDS011;16845;48.670;9.000;2023-07-29T02:05:55;8.52;;;2.60;;
30000;SDS011;16845;48.670;9.000;2023-07-29T02:08:21;2.77;;;2.13;;
30000;SDS011;16845;48.670;9.000;2023-07-29T02:10:48;7.93;;;2.40;;
30000;SDS011;16845;48.670;9.000;2023-07-29T02:13:15;4.55;;;2.17;;
30000;SDS011;16845;48.670;9.000;2023-07-29T02:18:09;3.35;;;2.08;;
30000;SDS011;16845;48.670;9.000;2023-07-29T02:20:36;7.75;;;2.72;;
30000;SDS011;16845;48.670;9.000;2023-07-29T02:23:02;4.97;;;2.85;;
30000;SDS011;16845;48.670;9.000;2023-07-29T02:25:29;2.92;;;2.40;;
30000;SDS011;16845;48.670;9.000;2023-07-29T02:27:55;2.33;;;2.07;;
30000;SDS011;16845;48.670;9.000;2023-07-29T02:30:22;5.82;;;2.67;;
30000;SDS011;16845;48.670;9.000;2023-07-29T02:32:50;4.55;;;2.53;;
30000;SDS011;16845;48.670;9.000;2023-07-29T02:35:16;9.63;;;2.60;;
30000;SDS011;16845;48.670;9.000;2023-07-29T02:37:43;9.03;;;2.27;;
30000;SDS011;16845;48.670;9.000;2023-07-29T02:40:10;4.75;;;2.75;;
30000;SDS011;16845;48.670;9.000;2023-07-29T02:42:37;4.60;;;2.63;;
30000;SDS011;16845;48.670;9.000;2023-07-29T02:45:04;4.03;;;2.60;;
30000;SDS011;16845;48.670;9.000;2023-07-29T02:49:59;5.43;;;2.83;;
30000;SDS011;16845;48.670;9.000;2023-07-29T02:52:25;3.65;;;2.75;;
30000;SDS011;16845;48.670;9.000;2023-07-29T02:54:52;4.77;;;2.57;;
30000;SDS011;16845;48.670;9.000;2023-07-29T02:57:19;3.15;;;2.30;;
30000;SDS011;16845;48.670;9.000;2023-07-29T02:59:46;3.03;;;2.33;;
30000;SDS011;16845;48.670;9.000;2023-07-29T03:02:12;4.80;;;2.72;;
30000;SDS011;16845;48.670;9.000;2023-07-29T03:04:39;9.02;;;2.50;;
30000;SDS011;16845;48.670;9.000;2023-07-29T03:07:06;7.85;;;2.95;;
30000;SDS011;16845;48.670;9.000;2023-07-29T03:09:33;3.65;;;2.17;;
30000;SDS011;16845;48.670;9.000;2023-07-29T03:12:00;8.23;;;3.03;;
30000;SDS011;16845;48.670;9.000;2023-07-29T03:14:26;2.23;;;2.03;;
30000;SDS011;16845;48.670;9.000;2023-07-29T03:16:53;8.52;;;2.60;;
30000;SDS011;16845;48.670;9.000;2023-07-29T03:19:19;4.83;;;3.13;;
30000;SDS011;16845;48.670;9.000;2023-07-29T03:21:46;9.10;;;2.85;;
30000;SDS011;16845;48.670;9.000;2023-07-29T03:24:14;4.50;;;2.65;;
30000;SDS011;16845;48.670;9.000;2023-07-29T03:26:40;4.93;;;2.53;;
30000;SDS011;16845;48.670;9.000;2023-07-29T03:29:10;7.80;;;2.97;;
30000;SDS011;16845;48.670;9.000;2023-07-29T03:31:37;3.13;;;2.63;;
30000;SDS011;16845;48.670;9.000;2023-07-29T03:34:03;11.48;;;2.83;;
30000;SDS011;16845;48.670;9.000;2023-07-29T03:36:30;7.90;;;3.05;;
30000;SDS011;16845;48.670;9.000;2023-07-29T03:38:56;5.63;;;3.22;;
30000;SDS011;16845;48.670;9.000;2023-07-29T03:41:24;7.97;;;2.75;;
30000;SDS011;16845;48.670;9.000;2023-07-29T03:43:50;5.72;;;2.45;;
30000;SDS011;16845;48.670;9.000;2023-07-29T03:46:17;7.38;;;2.75;;
30000;SDS011;16845;48.670;9.000;2023-07-29T03:48:44;3.33;;;2.47;;
30000;SDS011;16845;48.670;9.000;2023-07-29T03:51:10;6.90;;;3.38;;
30000;SDS011;16845;48.670;9.000;2023-07-29T03:53:37;4.10;;;2.90;;
30000;SDS011;16845;48.670;9.000;2023-07-29T03:56:03;3.33;;;2.67;;
30000;SDS011;16845;48.670;9.000;2023-07-29T03:58:31;5.15;;;2.47;;
30000;SDS011;16845;48.670;9.000;2023-07-29T04:00:58;9.65;;;2.85;;
30000;SDS011;16845;48.670;9.000;2023-07-29T04:03:24;3.55;;;2.50;;
30000;SDS011;16845;48.670;9.000;2023-07-29T04:05:51;5.10;;;2.70;;
30000;SDS011;16845;48.670;9.000;2023-07-29T04:08:18;5.78;;;2.70;;
30000;SDS011;16845;48.670;9.000;2023-07-29T04:10:45;4.35;;;2.75;;
30000;SDS011;16845;48.670;9.000;2023-07-29T04:13:11;8.57;;;3.38;;
30000;SDS011;16845;48.670;9.000;2023-07-29T04:15:39;3.38;;;3.05;;
30000;SDS011;16845;48.670;9.000;2023-07-29T04:18:05;10.35;;;3.30;;
30000;SDS011;16845;48.670;9.000;2023-07-29T04:20:32;4.43;;;3.37;;
30000;SDS011;16845;48.670;9.000;2023-07-29T04:22:59;5.57;;;3.60;;
30000;SDS011;16845;48.670;9.000;2023-07-29T04:25:25;4.03;;;3.40;;
30000;SDS011;16845;48.670;9.000;2023-07-29T04:27:52;9.35;;;4.45;;
30000;SDS011;16845;48.670;9.000;2023-07-29T04:30:18;6.18;;;3.20;;
30000;SDS011;16845;48.670;9.000;2023-07-29T04:32:46;9.63;;;3.30;;
30000;SDS011;16845;48.670;9.000;2023-07-29T04:35:13;6.28;;;4.32;;
30000;SDS011;16845;48.670;9.000;2023-07-29T04:37:39;14.33;;;4.57;;
30000;SDS011;16845;48.670;9.000;2023-07-29T04:40:06;10.87;;;4.27;;
30000;SDS011;16845;48.670;9.000;2023-07-29T04:45:00;7.70;;;4.13;;
30000;SDS011;16845;48.670;9.000;2023-07-29T04:47:26;6.55;;;4.50;;
30000;SDS011;16845;48.670;9.000;2023-07-29T04:49:54;6.65;;;3.85;;
30000;SDS011;16845;48.670;9.000;2023-07-29T04:52:21;10.10;;;4.40;;
30000;SDS011;16845;48.670;9.000;2023-07-29T04:54:47;8.23;;;4.40;;
30000;SDS011;16845;48.670;9.000;2023-07-29T04:57:14;8.30;;;4.27;;
30000;SDS011;16845;48.670;9.000;2023-07-29T04:59:40;9.48;;;4.97;;
30000;SDS011;16845;48.670;9.000;2023-07-29T05:02:07;6.15;;;4.50;;
30000;SDS011;16845;48.670;9.000;2023-07-29T05:04:33;10.48;;;4.93;;
30000;SDS011;16845;48.670;9.000;2023-07-29T05:07:01;8.88;;;5.38;;
30000;SDS011;16845;48.670;9.000;2023-07-29T05:09:28;7.47;;;5.20;;
30000;SDS011;16845;48.670;9.000;2023-07-29T05:11:54;8.73;;;5.38;;
30000;SDS011;16845;48.670;9.000;2023-07-29T05:14:21;8.15;;;5.70;;
30000;SDS011;16845;48.670;9.000;2023-07-29T05:16:47;5.25;;;4.10;;
30000;SDS011;16845;48.670;9.000;2023-07-29T05:19:14;7.15;;;4.85;;
30000;SDS011;16845;48.670;9.000;2023-07-29T05:21:40;8.27;;;4.55;;
30000;SDS011;16845;48.670;9.000;2023-07-29T05:24:08;8.73;;;4.93;;
30000;SDS011;16845;48.670;9.000;2023-07-29T05:26:34;6.75;;;4.95;;
30000;SDS011;16845;48.670;9.000;2023-07-29T05:29:01;5.72;;;4.20;;
30000;SDS011;16845;48.670;9.000;2023-07-29T05:31:28;5.22;;;4.30;;
30000;SDS011;16845;48.670;9.000;2023-07-29T05:33:55;8.07;;;5.20;;
30000;SDS011;16845;48.670;9.000;2023-07-29T05:36:21;6.25;;;4.10;;
30000;SDS011;16845;48.670;9.000;2023-07-29T05:38:48;6.43;;;4.47;;
30000;SDS011;16845;48.670;9.000;2023-07-29T05:41:15;4.95;;;3.60;;
30000;SDS011;16845;48.670;9.000;2023-07-29T05:43:42;5.55;;;3.80;;
30000;SDS011;16845;48.670;9.000;2023-07-29T05:46:08;4.65;;;4.10;;
30000;SDS011;16845;48.670;9.000;2023-07-29T05:48:35;6.20;;;3.80;;
30000;SDS011;16845;48.670;9.000;2023-07-29T05:51:02;7.13;;;4.22;;
30000;SDS011;16845;48.670;9.000;2023-07-29T05:53:28;5.70;;;4.23;;
30000;SDS011;16845;48.670;9.000;2023-07-29T05:55:55;9.40;;;3.88;;
30000;SDS011;16845;48.670;9.000;2023-07-29T05:58:23;5.68;;;3.65;;
30000;SDS011;16845;48.670;9.000;2023-07-29T06:00:50;5.60;;;3.90;;
30000;SDS011;16845;48.670;9.000;2023-07-29T06:03:16;5.73;;;3.73;;
30000;SDS011;16845;48.670;9.000;2023-07-29T06:05:43;3.83;;;3.20;;
30000;SDS011;16845;48.670;9.000;2023-07-29T06:08:09;4.55;;;3.28;;
30000;SDS011;16845;48.670;9.000;2023-07-29T06:10:37;7.88;;;3.45;;
30000;SDS011;16845;48.670;9.000;2023-07-29T06:13:04;7.97;;;3.10;;
30000;SDS011;16845;48.670;9.000;2023-07-29T06:15:32;5.28;;;3.00;;
30000;SDS011;16845;48.670;9.000;2023-07-29T06:17:58;3.22;;;2.60;;
30000;SDS011;16845;48.670;9.000;2023-07-29T06:20:25;2.67;;;2.20;;
30000;SDS011;16845;48.670;9.000;2023-07-29T06:22:52;2.50;;;2.28;;
30000;SDS011;16845;48.670;9.000;2023-07-29T06:25:18;4.30;;;2.45;;
30000;SDS011;16845;48.670;9.000;2023-07-29T06:27:45;6.17;;;2.67;;
30000;SDS011;16845;48.670;9.000;2023-07-29T06:30:11;5.75;;;2.85;;
30000;SDS011;16845;48.670;9.000;2023-07-29T06:32:39;4.25;;;2.97;;
30000;SDS011;16845;48.670;9.000;2023-07-29T06:35:06;5.40;;;2.80;;
30000;SDS011;16845;48.670;9.000;2023-07-29T06:37:33;2.47;;;2.28;;
30000;SDS011;16845;48.670;9.000;2023-07-29T06:39:59;5.00;;;2.77;;
30000;SDS011;16845;48.670;9.000;2023-07-29T06:42:26;5.30;;;2.80;;
30000;SDS011;16845;48.670;9.000;2023-07-29T06:44:53;7.23;;;2.90;;
30000;SDS011;16845;48.670;9.000;2023-07-29T06:47:19;5.63;;;3.08;;
30000;SDS011;16845;48.670;9.000;2023-07-29T06:49:47;5.83;;;3.23;;
30000;SDS011;16845;48.670;9.000;2023-07-29T06:52:14;7.10;;;2.50;;
30000;SDS011;16845;48.670;9.000;2023-07-29T06:54:40;9.98;;;2.83;;
30000;SDS011;16845;48.670;9.000;2023-07-29T06:57:07;11.68;;;3.30;;
30000;SDS011;16845;48.670;9.000;2023-07-29T06:59:33;7.10;;;2.85;;
30000;SDS011;16845;48.670;9.000;2023-07-29T07:01:59;3.25;;;2.80;;
30000;SDS011;16845;48.670;9.000;2023-07-29T07:04:26;5.33;;;2.33;;
30000;SDS011;16845;48.670;9.000;2023-07-29T07:06:54;3.97;;;2.65;;
30000;SDS011;16845;48.670;9.000;2023-07-29T07:09:21;6.22;;;2.42;;
30000;SDS011;16845;48.670;9.000;2023-07-29T07:11:47;7.80;;;2.92;;
30000;SDS011;16845;48.670;9.000;2023-07-29T07:14:14;5.80;;;2.83;;
30000;SDS011;16845;48.670;9.000;2023-07-29T07:16:40;4.03;;;2.50;;
30000;SDS011;16845;48.670;9.000;2023-07-29T07:19:07;3.50;;;2.38;;
30000;SDS011;16845;48.670;9.000;2023-07-29T07:21:33;13.20;;;5.03;;
30000;SDS011;16845;48.670;9.000;2023-07-29T07:24:01;3.25;;;2.22;;
30000;SDS011;16845;48.670;9.000;2023-07-29T07:26:28;3.13;;;2.13;;
30000;SDS011;16845;48.670;9.000;2023-07-29T07:28:54;5.18;;;2.25;;
30000;SDS011;16845;48.670;9.000;2023-07-29T07:31:21;3.95;;;2.88;;
30000;SDS011;16845;48.670;9.000;2023-07-29T07:33:48;3.95;;;2.45;;
30000;SDS011;16845;48.670;9.000;2023-07-29T07:36:14;4.50;;;2.40;;
30000;SDS011;16845;48.670;9.000;2023-07-29T07:38:41;3.60;;;2.03;;
30000;SDS011;16845;48.670;9.000;2023-07-29T07:41:09;4.05;;;2.42;;
30000;SDS011;16845;48.670;9.000;2023-07-29T07:43:35;6.55;;;2.33;;
30000;SDS011;16845;48.670;9.000;2023-07-29T07:46:02;4.38;;;2.35;;
30000;SDS011;16845;48.670;9.000;2023-07-29T07:48:29;2.30;;;1.60;;
30000;SDS011;16845;48.670;9.000;2023-07-29T07:50:56;5.10;;;1.90;;
30000;SDS011;16845;48.670;9.000;2023-07-29T07:53:22;4.10;;;2.00;;
30000;SDS011;16845;48.670;9.000;2023-07-29T07:55:49;1.52;;;1.40;;
30000;SDS011;16845;48.670;9.000;2023-07-29T07:58:17;2.80;;;1.63;;
30000;SDS011;16845;48.670;9.000;2023-07-29T08:00:43;1.58;;;1.35;;
30000;SDS011;16845;48.670;9.000;2023-07-29T08:03:10;2.15;;;1.08;;
30000;SDS011;16845;48.670;9.000;2023-07-29T08:05:37;3.33;;;1.77;;
30000;SDS011;16845;48.670;9.000;2023-07-29T08:08:03;3.17;;;1.33;;
30000;SDS011;16845;48.670;9.000;2023-07-29T08:10:29;2.28;;;1.30;;
30000;SDS011;16845;48.670;9.000;2023-07-29T08:12:56;12.65;;;1.65;;
30000;SDS011;16845;48.670;9.000;2023-07-29T08:15:24;3.78;;;1.50;;
30000;SDS011;16845;48.670;9.000;2023-07-29T08:17:50;3.20;;;1.42;;
30000;SDS011;16845;48.670;9.000;2023-07-29T08:20:17;2.03;;;1.23;;
30000;SDS011;16845;48.670;9.000;2023-07-29T08:22:43;2.33;;;1.45;;
30000;SDS011;16845;48.670;9.000;2023-07-29T08:25:10;2.60;;;1.35;;
30000;SDS011;16845;48.670;9.000;2023-07-29T08:27:37;1.35;;;1.25;;
30000;SDS011;16845;48.670;9.000;2023-07-29T08:30:03;2.10;;;1.40;;
30000;SDS011;16845;48.670;9.000;2023-07-29T08:32:32;3.22;;;1.27;;
30000;SDS011;16845;48.670;9.000;2023-07-29T08:34:59;3.38;;;1.73;;
30000;SDS011;16845;48.670;9.000;2023-07-29T08:37:25;3.23;;;1.40;;
30000;SDS011;16845;48.670;9.000;2023-07-29T08:39:52;1.60;;;1.38;;
30000;SDS011;16845;48.670;9.000;2023-07-29T08:42:18;3.17;;;1.17;;
30000;SDS011;16845;48.670;9.000;2023-07-29T08:44:46;2.45;;;1.20;;
30000;SDS011;16845;48.670;9.000;2023-07-29T08:47:15;3.42;;;1.58;;
30000;SDS011;16845;48.670;9.000;2023-07-29T08:49:43;4.63;;;1.45;;
30000;SDS011;16845;48.670;9.000;2023-07-29T08:52:11;2.25;;;1.63;;
30000;SDS011;16845;48.670;9.000;2023-07-29T08:54:38;7.53;;;2.45;;
30000;SDS011;16845;48.670;9.000;2023-07-29T08:57:05;2.78;;;1.77;;
30000;SDS011;16845;48.670;9.000;2023-07-29T09:01:59;1.73;;;1.50;;
30000;SDS011;16845;48.670;9.000;2023-07-29T09:04:25;1.92;;;1.50;;
30000;SDS011;16845;48.670;9.000;2023-07-29T09:06:53;6.50;;;2.00;;
30000;SDS011;16845;48.670;9.000;2023-07-29T09:09:22;2.53;;;1.95;;
30000;SDS011;16845;48.670;9.000;2023-07-29T09:11:48;4.70;;;1.60;;
30000;SDS011;16845;48.670;9.000;2023-07-29T09:14:15;2.87;;;1.40;;
30000;SDS011;16845;48.670;9.000;2023-07-29T09:16:41;4.72;;;1.42;;
30000;SDS011;16845;48.670;9.000;2023-07-29T09:19:08;2.92;;;1.30;;
30000;SDS011;16845;48.670;9.000;2023-07-29T09:21:37;1.40;;;1.30;;
30000;SDS011;16845;48.670;9.000;2023-07-29T09:24:06;2.70;;;1.20;;
30000;SDS011;16845;48.670;9.000;2023-07-29T09:26:33;1.50;;;1.20;;
30000;SDS011;16845;48.670;9.000;2023-07-29T09:29:01;3.78;;;1.30;;
30000;SDS011;16845;48.670;9.000;2023-07-29T09:31:28;4.13;;;1.50;;
30000;SDS011;16845;48.670;9.000;2023-07-29T09:33:55;3.40;;;1.70;;
30000;SDS011;16845;48.670;9.000;2023-07-29T09:36:22;2.38;;;1.30;;
30000;SDS011;16845;48.670;9.000;2023-07-29T09:38:51;1.27;;;1.13;;
30000;SDS011;16845;48.670;9.000;2023-07-29T09:41:20;2.60;;;1.58;;
30000;SDS011;16845;48.670;9.000;2023-07-29T09:43:48;1.55;;;1.45;;
30000;SDS011;16845;48.670;9.000;2023-07-29T09:46:22;6.57;;;1.70;;
30000;SDS011;16845;48.670;9.000;2023-07-29T09:48:49;1.60;;;1.50;;
30000;SDS011;16845;48.670;9.000;2023-07-29T09:51:19;2.15;;;1.58;;
30000;SDS011;16845;48.670;9.000;2023-07-29T09:53:46;3.97;;;1.40;;
30000;SDS011;16845;48.670;9.000;2023-07-29T09:56:14;2.00;;;1.70;;
30000;SDS011;16845;48.670;9.000;2023-07-29T09:58:43;3.60;;;2.00;;
30000;SDS011;16845;48.670;9.000;2023-07-29T10:01:10;2.17;;;1.70;;
30000;SDS011;16845;48.670;9.000;2023-07-29T10:03:37;2.95;;;2.13;;
30000;SDS011;16845;48.670;9.000;2023-07-29T10:06:04;7.70;;;1.88;;
30000;SDS011;16845;48.670;9.000;2023-07-29T10:08:32;2.83;;;1.67;;
30000;SDS011;16845;48.670;9.000;2023-07-29T10:10:59;5.32;;;1.65;;
30000;SDS011;16845;48.670;9.000;2023-07-29T10:13:26;8.68;;;2.22;;
30000;SDS011;16845;48.670;9.000;2023-07-29T10:15:54;1.75;;;1.50;;
30000;SDS011;16845;48.670;9.000;2023-07-29T10:18:21;3.53;;;1.48;;
30000;SDS011;16845;48.670;9.000;2023-07-29T10:20:49;6.55;;;1.85;;
30000;SDS011;16845;48.670;9.000;2023-07-29T10:23:17;2.72;;;1.55;;
30000;SDS011;16845;48.670;9.000;2023-07-29T10:28:13;4.03;;;1.65;;
30000;SDS011;16845;48.670;9.000;2023-07-29T10:30:41;2.20;;;1.60;;
30000;SDS011;16845;48.670;9.000;2023-07-29T10:33:09;2.40;;;1.70;;
30000;SDS011;16845;48.670;9.000;2023-07-29T10:35:36;1.58;;;1.40;;
30000;SDS011;16845;48.670;9.000;2023-07-29T10:38:03;1.50;;;1.40;;
30000;SDS011;16845;48.670;9.000;2023-07-29T10:40:43;2.75;;;1.67;;
30000;SDS011;16845;48.670;9.000;2023-07-29T10:43:12;4.93;;;1.70;;
30000;SDS011;16845;48.670;9.000;2023-07-29T10:45:39;2.10;;;1.90;;
30000;SDS011;16845;48.670;9.000;2023-07-29T10:48:11;2.28;;;1.60;;
30000;SDS011;16845;48.670;9.000;2023-07-29T10:50:38;2.38;;;1.70;;
30000;SDS011;16845;48.670;9.000;2023-07-29T10:53:05;3.75;;;1.73;;
30000;SDS011;16845;48.670;9.000;2023-07-29T10:55:32;1.63;;;1.35;;
30000;SDS011;16845;48.670;9.000;2023-07-29T10:58:07;2.88;;;2.10;;
30000;SDS011;16845;48.670;9.000;2023-07-29T11:00:38;2.55;;;1.80;;
30000;SDS011;16845;48.670;9.000;2023-07-29T11:03:05;3.83;;;1.70;;
30000;SDS011;16845;48.670;9.000;2023-07-29T11:05:47;2.10;;;1.90;;
30000;SDS011;16845;48.670;9.000;2023-07-29T11:08:18;2.97;;;1.67;;
30000;SDS011;16845;48.670;9.000;2023-07-29T11:10:57;2.33;;;1.50;;
30000;SDS011;16845;48.670;9.000;2023-07-29T11:13:25;3.63;;;1.77;;
30000;SDS011;16845;48.670;9.000;2023-07-29T11:15:53;2.28;;;1.55;;
30000;SDS011;16845;48.670;9.000;2023-07-29T11:18:20;4.57;;;1.70;;
30000;SDS011;16845;48.670;9.000;2023-07-29T11:20:48;1.95;;;1.65;;
30000;SDS011;16845;48.670;9.000;2023-07-29T11:23:15;2.10;;;1.80;;
30000;SDS011;16845;48.670;9.000;2023-07-29T11:25:42;2.97;;;1.88;;
30000;SDS011;16845;48.670;9.000;2023-07-29T11:28:08;2.25;;;2.05;;
30000;SDS011;16845;48.670;9.000;2023-07-29T11:30:36;2.93;;;1.67;;
30000;SDS011;16845;48.670;9.000;2023-07-29T11:33:05;3.00;;;2.17;;
30000;SDS011;16845;48.670;9.000;2023-07-29T11:35:31;1.80;;;1.38;;
30000;SDS011;16845;48.670;9.000;2023-07-29T11:37:59;2.22;;;2.03;;
30000;SDS011;16845;48.670;9.000;2023-07-29T11:40:26;2.35;;;2.15;;
30000;SDS011;16845;48.670;9.000;2023-07-29T11:42:54;1.40;;;1.30;;
30000;SDS011;16845;48.670;9.000;2023-07-29T11:45:21;2.40;;;1.73;;
30000;SDS011;16845;48.670;9.000;2023-07-29T11:47:57;26.08;;;2.30;;
30000;SDS011;16845;48.670;9.000;2023-07-29T11:50:24;2.38;;;1.70;;
30000;SDS011;16845;48.670;9.000;2023-07-29T11:52:51;1.42;;;1.30;;
30000;SDS011;16845;48.670;9.000;2023-07-29T11:55:19;6.32;;;2.13;;
30000;SDS011;16845;48.670;9.000;2023-07-29T11:57:46;2.20;;;2.00;;
30000;SDS011;16845;48.670;9.000;2023-07-29T12:00:17;2.83;;;1.92;;
30000;SDS011;16845;48.670;9.000;2023-07-29T12:02:44;3.22;;;1.95;;
30000;SDS011;16845;48.670;9.000;2023-07-29T12:05:13;2.20;;;1.83;;
30000;SDS011;16845;48.670;9.000;2023-07-29T12:07:41;5.30;;;2.17;;
30000;SDS011;16845;48.670;9.000;2023-07-29T12:10:09;5.03;;;2.03;;
30000;SDS011;16845;48.670;9.000;2023-07-29T12:12:38;2.08;;;1.85;;
30000;SDS011;16845;48.670;9.000;2023-07-29T12:15:10;3.95;;;1.80;;
30000;SDS011;16845;48.670;9.000;2023-07-29T12:17:39;2.93;;;1.70;;
30000;SDS011;16845;48.670;9.000;2023-07-29T12:20:08;2.25;;;1.90;;
30000;SDS011;16845;48.670;9.000;2023-07-29T12:22:35;4.07;;;1.77;;
30000;SDS011;16845;48.670;9.000;2023-07-29T12:25:02;2.67;;;1.80;;
30000;SDS011;16845;48.670;9.000;2023-07-29T12:27:30;3.03;;;1.90;;
30000;SDS011;16845;48.670;9.000;2023-07-29T12:30:00;2.75;;;1.70;;
30000;SDS011;16845;48.670;9.000;2023-07-29T12:32:27;23.95;;;2.90;;
30000;SDS011;16845;48.670;9.000;2023-07-29T12:34:55;3.30;;;2.00;;
30000;SDS011;16845;48.670;9.000;2023-07-29T12:37:30;2.75;;;1.77;;
30000;SDS011;16845;48.670;9.000;2023-07-29T12:39:57;1.67;;;1.42;;
30000;SDS011;16845;48.670;9.000;2023-07-29T12:42:24;3.75;;;2.50;;
30000;SDS011;16845;48.670;9.000;2023-07-29T12:44:50;1.88;;;1.70;;
30000;SDS011;16845;48.670;9.000;2023-07-29T12:47:18;1.90;;;1.67;;
30000;SDS011;16845;48.670;9.000;2023-07-29T12:49:45;2.17;;;1.50;;
30000;SDS011;16845;48.670;9.000;2023-07-29T12:52:11;2.17;;;1.52;;
30000;SDS011;16845;48.670;9.000;2023-07-29T12:54:38;2.92;;;1.95;;
30000;SDS011;16845;48.670;9.000;2023-07-29T12:57:04;1.83;;;1.60;;
30000;SDS011;16845;48.670;9.000;2023-07-29T12:59:31;2.00;;;1.48;;
30000;SDS011;16845;48.670;9.000;2023-07-29T13:01:58;1.98;;;1.80;;
30000;SDS011;16845;48.670;9.000;2023-07-29T13:06:53;4.97;;;1.53;;
30000;SDS011;16845;48.670;9.000;2023-07-29T13:09:19;2.72;;;1.85;;
30000;SDS011;16845;48.670;9.000;2023-07-29T13:11:46;2.97;;;1.60;;
30000;SDS011;16845;48.670;9.000;2023-07-29T13:14:12;5.65;;;1.48;;
30000;SDS011;16845;48.670;9.000;2023-07-29T13:16:39;3.88;;;1.85;;
30000;SDS011;16845;48.670;9.000;2023-07-29T13:19:06;3.90;;;2.08;;
30000;SDS011;16845;48.670;9.000;2023-07-29T13:21:34;2.67;;;1.85;;
30000;SDS011;16845;48.670;9.000;2023-07-29T13:24:00;8.15;;;1.77;;
30000;SDS011;16845;48.670;9.000;2023-07-29T13:26:27;1.52;;;1.42;;
30000;SDS011;16845;48.670;9.000;2023-07-29T13:28:53;3.53;;;2.10;;
30000;SDS011;16845;48.670;9.000;2023-07-29T13:31:20;9.60;;;3.45;;
30000;SDS011;16845;48.670;9.000;2023-07-29T13:33:46;2.00;;;1.70;;
30000;SDS011;16845;48.670;9.000;2023-07-29T13:36:13;3.57;;;2.30;;
30000;SDS011;16845;48.670;9.000;2023-07-29T13:38:41;1.95;;;1.55;;
30000;SDS011;16845;48.670;9.000;2023-07-29T13:41:07;4.55;;;2.10;;
30000;SDS011;16845;48.670;9.000;2023-07-29T13:43:34;4.30;;;1.85;;
30000;SDS011;16845;48.670;9.000;2023-07-29T13:46:00;1.77;;;1.45;;
30000;SDS011;16845;48.670;9.000;2023-07-29T13:48:27;2.35;;;1.83;;
30000;SDS011;16845;48.670;9.000;2023-07-29T13:50:53;3.00;;;2.08;;
30000;SDS011;16845;48.670;9.000;2023-07-29T13:53:20;2.30;;;1.70;;
30000;SDS011;16845;48.670;9.000;2023-07-29T13:55:48;1.90;;;1.50;;
30000;SDS011;16845;48.670;9.000;2023-07-29T13:58:14;5.65;;;2.08;;
30000;SDS011;16845;48.670;9.000;2023-07-29T14:00:41;3.33;;;1.43;;
30000;SDS011;16845;48.670;9.000;2023-07-29T14:03:07;2.43;;;2.23;;
30000;SDS011;16845;48.670;9.000;2023-07-29T14:05:34;1.98;;;1.77;;
30000;SDS011;16845;48.670;9.000;2023-07-29T14:08:00;3.08;;;2.40;;
30000;SDS011;16845;48.670;9.000;2023-07-29T14:10:27;2.83;;;1.83;;
30000;SDS011;16845;48.670;9.000;2023-07-29T14:12:55;2.30;;;2.10;;
30000;SDS011;16845;48.670;9.000;2023-07-29T14:15:21;3.38;;;2.05;;
30000;SDS011;16845;48.670;9.000;2023-07-29T14:17:48;2.77;;;1.90;;
30000;SDS011;16845;48.670;9.000;2023-07-29T14:20:15;3.35;;;2.42;;
30000;SDS011;16845;48.670;9.000;2023-07-29T14:22:41;2.03;;;1.83;;
30000;SDS011;16845;48.670;9.000;2023-07-29T14:25:08;3.55;;;1.60;;
30000;SDS011;16845;48.670;9.000;2023-07-29T14:27:34;2.73;;;2.27;;
30000;SDS011;16845;48.670;9.000;2023-07-29T14:30:02;4.60;;;1.97;;
30000;SDS011;16845;48.670;9.000;2023-07-29T14:32:29;5.50;;;2.17;;
30000;SDS011;16845;48.670;9.000;2023-07-29T14:34:56;3.80;;;1.60;;
30000;SDS011;16845;48.670;9.000;2023-07-29T14:37:22;1.77;;;1.47;;
30000;SDS011;16845;48.670;9.000;2023-07-29T14:39:49;2.23;;;1.73;;
30000;SDS011;16845;48.670;9.000;2023-07-29T14:42:15;1.87;;;1.40;;
30000;SDS011;16845;48.670;9.000;2023-07-29T14:44:42;1.57;;;1.47;;
30000;SDS011;16845;48.670;9.000;2023-07-29T14:47:10;3.33;;;2.00;;
30000;SDS011;16845;48.670;9.000;2023-07-29T14:49:36;2.13;;;1.92;;
30000;SDS011;16845;48.670;9.000;2023-07-29T14:52:03;3.23;;;1.93;;
30000;SDS011;16845;48.670;9.000;2023-07-29T14:54:30;2.20;;;2.00;;
30000;SDS011;16845;48.670;9.000;2023-07-29T14:56:57;2.10;;;1.90;;
30000;SDS011;16845;48.670;9.000;2023-07-29T14:59:23;1.67;;;1.58;;
30000;SDS011;16845;48.670;9.000;2023-07-29T15:01:50;3.23;;;1.90;;
30000;SDS011;16845;48.670;9.000;2023-07-29T15:04:17;2.60;;;2.00;;